createdAt,value
2019-05-25T00:02:52.040Z,10.90
2019-05-25T00:05:59.587Z,10.90
2019-05-25T00:09:08.586Z,10.90
2019-05-25T00:12:17.022Z,10.90
2019-05-25T00:15:25.631Z,10.80
2019-05-25T00:18:33.106Z,10.80
2019-05-25T00:21:40.635Z,10.70
2019-05-25T00:24:48.169Z,10.70
2019-05-25T00:27:55.798Z,10.60
2019-05-25T00:31:03.254Z,10.60
2019-05-25T00:34:10.938Z,10.60
2019-05-25T00:37:18.591Z,10.50
2019-05-25T00:40:26.105Z,10.40
2019-05-25T00:43:33.581Z,10.30
2019-05-25T00:46:41.121Z,10.20
2019-05-25T00:49:48.711Z,10.20
2019-05-25T00:52:56.977Z,10.10
2019-05-25T00:56:04.495Z,10.10
2019-05-25T00:59:12.255Z,10.10
2019-05-25T01:02:20.111Z,10.00
2019-05-25T01:05:27.630Z,10.00
2019-05-25T01:08:35.155Z,10.00
2019-05-25T01:11:42.872Z,10.00
2019-05-25T01:14:50.407Z,9.90
2019-05-25T01:17:57.915Z,9.70
2019-05-25T01:21:05.501Z,9.60
2019-05-25T01:24:12.982Z,9.50
2019-05-25T01:27:21.832Z,9.50
2019-05-25T01:30:29.567Z,9.50
2019-05-25T01:33:37.064Z,9.40
2019-05-25T01:36:44.616Z,9.30
2019-05-25T01:39:52.114Z,9.10
2019-05-25T01:42:59.603Z,9.00
2019-05-25T01:46:07.089Z,9.00
2019-05-25T01:49:14.623Z,8.90
2019-05-25T01:52:22.145Z,8.90
2019-05-25T01:55:30.873Z,8.80
2019-05-25T01:58:38.650Z,8.80
2019-05-25T02:01:46.188Z,8.70
2019-05-25T02:04:53.737Z,8.70
2019-05-25T02:08:01.593Z,8.70
2019-05-25T02:11:09.380Z,8.60
2019-05-25T02:14:17.065Z,8.60
2019-05-25T02:17:24.808Z,8.60
2019-05-25T02:20:32.246Z,8.50
2019-05-25T02:23:39.839Z,8.50
2019-05-25T02:26:47.407Z,8.50
2019-05-25T02:29:54.945Z,8.50
2019-05-25T02:33:02.453Z,8.50
2019-05-25T02:36:09.956Z,8.40
2019-05-25T02:39:17.617Z,8.40
2019-05-25T02:42:25.371Z,8.40
2019-05-25T02:45:32.807Z,8.40
2019-05-25T02:48:40.291Z,8.30
2019-05-25T02:51:49.665Z,8.30
2019-05-25T02:54:57.233Z,8.40
2019-05-25T02:58:04.752Z,8.50
2019-05-25T03:01:12.359Z,8.60
2019-05-25T03:04:19.906Z,8.70
2019-05-25T03:07:27.782Z,8.80
2019-05-25T03:10:36.459Z,8.90
2019-05-25T03:13:44.649Z,8.90
2019-05-25T03:16:52.240Z,8.90
2019-05-25T03:20:00.754Z,8.90
2019-05-25T03:23:08.519Z,8.90
2019-05-25T03:26:16.094Z,8.90
2019-05-25T03:29:25.128Z,8.90
2019-05-25T03:32:32.719Z,8.90
2019-05-25T03:35:41.938Z,8.90
2019-05-25T03:38:49.416Z,8.90
2019-05-25T03:41:56.979Z,9.00
2019-05-25T03:45:05.044Z,9.10
2019-05-25T03:48:12.498Z,9.20
2019-05-25T03:51:20.022Z,9.50
2019-05-25T03:54:27.591Z,10.10
2019-05-25T03:57:35.481Z,10.80
2019-05-25T04:00:42.930Z,11.60
2019-05-25T04:03:50.390Z,12.00
2019-05-25T04:06:58.435Z,12.40
2019-05-25T04:10:06.774Z,13.00
2019-05-25T04:13:14.319Z,13.50
2019-05-25T04:16:21.768Z,13.30
2019-05-25T04:19:29.198Z,13.50
2019-05-25T04:22:36.745Z,13.70
2019-05-25T04:25:45.149Z,13.90
2019-05-25T04:28:52.758Z,14.40
2019-05-25T04:32:00.216Z,15.00
2019-05-25T04:35:09.109Z,15.70
2019-05-25T04:38:16.604Z,16.50
2019-05-25T04:41:24.170Z,17.10
2019-05-25T04:44:31.642Z,17.50
2019-05-25T04:47:39.523Z,18.10
2019-05-25T04:50:46.995Z,18.90
2019-05-25T04:53:54.804Z,19.90
2019-05-25T04:57:02.510Z,20.50
2019-05-25T05:00:11.666Z,21.00
2019-05-25T05:03:19.146Z,20.90
2019-05-25T05:06:26.774Z,21.90
2019-05-25T05:09:34.406Z,22.40
2019-05-25T05:12:42.016Z,22.20
2019-05-25T05:15:49.542Z,22.20
2019-05-25T05:18:57.152Z,22.00
2019-05-25T05:22:06.006Z,21.90
2019-05-25T05:25:14.870Z,22.60
2019-05-25T05:28:22.431Z,23.40
2019-05-25T05:31:29.920Z,22.90
2019-05-25T05:34:37.419Z,21.30
2019-05-25T05:37:45.468Z,21.90
2019-05-25T05:40:54.833Z,22.30
2019-05-25T05:44:05.139Z,22.60
2019-05-25T05:47:14.809Z,22.30
2019-05-25T05:50:22.896Z,22.00
2019-05-25T05:53:30.490Z,22.00
2019-05-25T05:56:37.973Z,22.10
2019-05-25T05:59:45.561Z,22.50
2019-05-25T06:02:53.034Z,22.00
2019-05-25T06:06:00.822Z,21.90
2019-05-25T06:09:09.017Z,21.70
2019-05-25T06:12:16.632Z,21.70
2019-05-25T06:15:24.104Z,21.30
2019-05-25T06:18:32.146Z,21.00
2019-05-25T06:21:39.856Z,20.70
2019-05-25T06:24:47.554Z,20.70
2019-05-25T06:27:55.627Z,20.70
2019-05-25T06:31:03.300Z,21.20
2019-05-25T06:34:10.840Z,21.30
2019-05-25T06:37:19.714Z,21.90
2019-05-25T06:40:27.554Z,21.80
2019-05-25T06:43:35.424Z,21.80
2019-05-25T06:46:43.112Z,22.30
2019-05-25T06:49:50.740Z,22.60
2019-05-25T06:52:58.641Z,22.30
2019-05-25T06:56:06.267Z,22.00
2019-05-25T06:59:14.190Z,22.40
2019-05-25T07:02:22.628Z,21.80
2019-05-25T07:05:30.534Z,20.50
2019-05-25T07:08:38.684Z,19.60
2019-05-25T07:11:46.520Z,19.60
2019-05-25T07:14:54.161Z,19.50
2019-05-25T07:18:02.048Z,19.50
2019-05-25T07:21:09.738Z,19.30
2019-05-25T07:24:17.370Z,19.90
2019-05-25T07:27:25.064Z,20.50
2019-05-25T07:30:33.195Z,20.00
2019-05-25T07:33:40.676Z,20.70
2019-05-25T07:36:48.319Z,21.10
2019-05-25T07:39:56.229Z,21.30
2019-05-25T07:43:03.740Z,22.00
2019-05-25T07:46:11.273Z,21.80
2019-05-25T07:49:18.968Z,22.10
2019-05-25T07:52:26.673Z,21.70
2019-05-25T07:55:34.213Z,22.60
2019-05-25T07:58:41.762Z,23.10
2019-05-25T08:01:50.817Z,23.80
2019-05-25T08:04:58.381Z,24.20
2019-05-25T08:08:06.007Z,24.00
2019-05-25T08:11:14.356Z,24.10
2019-05-25T08:14:21.861Z,24.00
2019-05-25T08:17:29.308Z,24.60
2019-05-25T08:20:38.464Z,25.20
2019-05-25T08:23:46.109Z,25.10
2019-05-25T08:26:54.158Z,25.20
2019-05-25T08:30:01.611Z,26.00
2019-05-25T08:33:09.228Z,25.30
2019-05-25T08:36:16.713Z,25.90
2019-05-25T08:39:24.234Z,26.30
2019-05-25T08:42:31.733Z,26.80
2019-05-25T08:45:39.258Z,27.00
2019-05-25T08:48:47.750Z,26.90
2019-05-25T08:51:55.314Z,27.20
2019-05-25T08:55:02.866Z,27.60
2019-05-25T08:58:10.940Z,27.70
2019-05-25T09:01:18.536Z,27.50
2019-05-25T09:04:26.097Z,27.60
2019-05-25T09:07:33.623Z,27.70
2019-05-25T09:10:41.067Z,27.80
2019-05-25T09:13:48.595Z,27.40
2019-05-25T09:16:56.148Z,27.30
2019-05-25T09:20:03.709Z,27.40
2019-05-25T09:23:11.160Z,27.70
2019-05-25T09:26:18.604Z,27.90
2019-05-25T09:29:26.308Z,28.00
2019-05-25T09:32:34.013Z,28.00
2019-05-25T09:35:41.438Z,27.80
2019-05-25T09:38:48.976Z,27.60
2019-05-25T09:41:56.454Z,27.70
2019-05-25T09:45:04.034Z,27.10
2019-05-25T09:48:11.478Z,27.20
2019-05-25T09:51:19.067Z,27.80
2019-05-25T09:54:27.558Z,28.10
2019-05-25T09:57:35.366Z,28.20
2019-05-25T10:00:42.839Z,28.20
2019-05-25T10:03:50.456Z,27.80
2019-05-25T10:06:57.926Z,28.20
2019-05-25T10:10:06.015Z,27.80
2019-05-25T10:13:14.916Z,28.10
2019-05-25T10:16:22.363Z,28.00
2019-05-25T10:19:29.959Z,28.20
2019-05-25T10:22:37.349Z,28.30
2019-05-25T10:25:44.782Z,28.20
2019-05-25T10:28:52.294Z,28.00
2019-05-25T10:32:00.074Z,28.30
2019-05-25T10:35:08.879Z,28.40
2019-05-25T10:38:17.745Z,28.40
2019-05-25T10:41:25.389Z,27.80
2019-05-25T10:44:33.103Z,27.10
2019-05-25T10:47:41.598Z,26.30
2019-05-25T10:50:49.096Z,26.40
2019-05-25T10:53:56.734Z,26.80
2019-05-25T10:57:04.325Z,26.90
2019-05-25T11:00:12.488Z,27.30
2019-05-25T11:03:20.169Z,27.70
2019-05-25T11:06:27.993Z,28.00
2019-05-25T11:09:35.609Z,27.80
2019-05-25T11:12:43.142Z,27.60
2019-05-25T11:15:51.646Z,27.80
2019-05-25T11:18:59.123Z,27.80
2019-05-25T11:22:06.654Z,27.40
2019-05-25T11:25:14.583Z,27.10
2019-05-25T11:28:22.745Z,27.10
2019-05-25T11:31:32.440Z,27.30
2019-05-25T11:34:41.334Z,27.10
2019-05-25T11:37:48.861Z,27.40
2019-05-25T11:40:56.516Z,27.70
2019-05-25T11:44:03.995Z,27.70
2019-05-25T11:47:11.714Z,27.40
2019-05-25T11:50:19.632Z,27.30
2019-05-25T11:53:28.376Z,27.40
2019-05-25T11:56:35.917Z,26.40
2019-05-25T11:59:44.710Z,26.60
2019-05-25T12:02:52.194Z,26.60
2019-05-25T12:05:59.737Z,26.40
2019-05-25T12:09:08.935Z,26.40
2019-05-25T12:12:16.831Z,26.00
2019-05-25T12:15:24.506Z,25.60
2019-05-25T12:18:31.945Z,25.50
2019-05-25T12:21:39.518Z,25.40
2019-05-25T12:24:47.369Z,25.60
2019-05-25T12:27:55.002Z,25.50
2019-05-25T12:31:03.015Z,25.50
2019-05-25T12:34:10.587Z,25.40
2019-05-25T12:37:18.267Z,25.20
2019-05-25T12:40:26.117Z,25.10
2019-05-25T12:43:33.853Z,25.00
2019-05-25T12:46:42.641Z,25.00
2019-05-25T12:49:51.286Z,25.00
2019-05-25T12:52:59.277Z,24.80
2019-05-25T12:56:07.272Z,24.90
2019-05-25T12:59:14.980Z,24.90
2019-05-25T13:02:22.679Z,24.60
2019-05-25T13:05:34.486Z,24.50
2019-05-25T13:08:39.789Z,24.60
2019-05-25T13:11:47.387Z,24.60
2019-05-25T13:14:54.957Z,24.70
2019-05-25T13:18:02.434Z,24.50
2019-05-25T13:21:10.181Z,24.50
2019-05-25T13:24:17.687Z,24.50
2019-05-25T13:27:25.212Z,24.50
2019-05-25T13:30:33.149Z,24.30
2019-05-25T13:33:41.031Z,24.40
2019-05-25T13:36:48.763Z,24.30
2019-05-25T13:39:56.223Z,24.10
2019-05-25T13:43:03.785Z,24.00
2019-05-25T13:46:11.321Z,24.00
2019-05-25T13:49:18.857Z,23.60
2019-05-25T13:52:26.654Z,23.60
2019-05-25T13:55:34.105Z,23.60
2019-05-25T13:58:41.561Z,23.60
2019-05-25T14:01:49.057Z,23.50
2019-05-25T14:04:56.490Z,23.20
2019-05-25T14:08:03.903Z,23.30
2019-05-25T14:11:11.405Z,23.20
2019-05-25T14:14:18.977Z,23.10
2019-05-25T14:17:27.695Z,23.20
2019-05-25T14:20:35.365Z,23.20
2019-05-25T14:23:42.901Z,23.50
2019-05-25T14:26:50.294Z,23.60
2019-05-25T14:29:57.781Z,23.50
2019-05-25T14:33:05.195Z,23.50
2019-05-25T14:36:12.667Z,23.60
2019-05-25T14:39:20.135Z,23.50
2019-05-25T14:42:27.637Z,23.40
2019-05-25T14:45:35.076Z,23.30
2019-05-25T14:48:42.648Z,23.10
2019-05-25T14:51:50.269Z,23.00
2019-05-25T14:55:00.325Z,23.10
2019-05-25T14:58:07.921Z,22.90
2019-05-25T15:01:15.716Z,22.80
2019-05-25T15:04:23.211Z,22.80
2019-05-25T15:07:30.668Z,22.80
2019-05-25T15:10:38.218Z,22.70
2019-05-25T15:13:46.268Z,22.60
2019-05-25T15:16:54.266Z,22.60
2019-05-25T15:20:01.863Z,22.70
2019-05-25T15:23:09.496Z,22.60
2019-05-25T15:26:17.296Z,22.40
2019-05-25T15:29:24.721Z,22.30
2019-05-25T15:32:32.453Z,22.20
2019-05-25T15:35:39.983Z,22.30
2019-05-25T15:38:47.675Z,22.20
2019-05-25T15:41:55.277Z,22.10
2019-05-25T15:45:02.826Z,21.90
2019-05-25T15:48:10.532Z,21.80
2019-05-25T15:51:18.128Z,21.70
2019-05-25T15:54:25.913Z,21.60
2019-05-25T15:57:33.610Z,21.50
2019-05-25T16:00:50.929Z,21.50
2019-05-25T16:03:58.770Z,21.40
2019-05-25T16:07:06.524Z,21.40
2019-05-25T16:10:14.116Z,21.40
2019-05-25T16:13:21.877Z,21.30
2019-05-25T16:16:30.927Z,21.20
2019-05-25T16:19:40.335Z,21.10
2019-05-25T16:22:47.861Z,21.00
2019-05-25T16:25:55.355Z,20.90
2019-05-25T16:29:02.827Z,20.90
2019-05-25T16:32:10.235Z,20.80
2019-05-25T16:35:17.695Z,20.80
2019-05-25T16:38:25.342Z,20.80
2019-05-25T16:41:32.927Z,20.80
2019-05-25T16:44:40.507Z,20.80
2019-05-25T16:47:48.012Z,20.70
2019-05-25T16:50:58.105Z,20.60
2019-05-25T16:54:05.631Z,20.60
2019-05-25T16:57:13.172Z,20.50
2019-05-25T17:00:28.306Z,20.40
2019-05-25T17:03:36.096Z,20.40
2019-05-25T17:06:44.702Z,20.20
2019-05-25T17:09:52.108Z,20.10
2019-05-25T17:13:00.901Z,20.00
2019-05-25T17:16:08.439Z,20.00
2019-05-25T17:19:15.927Z,19.90
2019-05-25T17:22:23.452Z,20.00
2019-05-25T17:25:30.920Z,20.00
2019-05-25T17:28:39.011Z,20.00
2019-05-25T17:31:46.739Z,20.00
2019-05-25T17:34:54.573Z,20.00
2019-05-25T17:38:05.004Z,20.00
2019-05-25T17:41:12.694Z,19.90
2019-05-25T17:44:20.199Z,19.90
2019-05-25T17:47:27.669Z,19.80
2019-05-25T17:50:35.297Z,19.70
2019-05-25T17:53:42.794Z,19.70
2019-05-25T17:56:50.300Z,19.60
2019-05-25T17:59:59.621Z,19.50
2019-05-25T18:03:07.016Z,19.40
2019-05-25T18:06:14.466Z,19.30
2019-05-25T18:09:22.091Z,19.20
2019-05-25T18:12:29.671Z,19.10
2019-05-25T18:15:37.258Z,19.00
2019-05-25T18:18:44.835Z,18.90
2019-05-25T18:21:52.396Z,18.80
2019-05-25T18:24:59.986Z,18.70
2019-05-25T18:28:08.300Z,18.50
2019-05-25T18:31:15.814Z,18.30
2019-05-25T18:34:23.518Z,18.20
2019-05-25T18:37:31.130Z,18.00
2019-05-25T18:40:38.598Z,17.90
2019-05-25T18:43:46.082Z,17.70
2019-05-25T18:46:53.541Z,17.60
2019-05-25T18:50:01.019Z,17.50
2019-05-25T18:53:08.519Z,17.30
2019-05-25T18:56:16.037Z,17.20
2019-05-25T18:59:23.587Z,17.10
2019-05-25T19:02:31.092Z,17.00
2019-05-25T19:05:38.579Z,16.90
2019-05-25T19:08:46.117Z,16.80
2019-05-25T19:11:53.564Z,16.80
2019-05-25T19:15:01.064Z,16.70
2019-05-25T19:18:11.426Z,16.60
2019-05-25T19:21:19.370Z,16.60
2019-05-25T19:24:27.191Z,16.50
2019-05-25T19:27:34.726Z,16.40
2019-05-25T19:30:42.240Z,16.40
2019-05-25T19:33:50.195Z,16.40
2019-05-25T19:36:57.668Z,16.30
2019-05-25T19:40:08.894Z,16.30
2019-05-25T19:43:14.913Z,16.20
2019-05-25T19:46:22.522Z,16.20
2019-05-25T19:49:30.058Z,16.20
2019-05-25T19:52:37.699Z,16.10
2019-05-25T19:55:45.228Z,16.10
2019-05-25T19:58:53.718Z,16.00
2019-05-25T20:02:01.355Z,16.00
2019-05-25T20:05:16.588Z,15.90
2019-05-25T20:08:19.175Z,15.90
2019-05-25T20:11:26.764Z,15.90
2019-05-25T20:14:34.343Z,15.80
2019-05-25T20:17:41.849Z,15.80
2019-05-25T20:20:49.282Z,15.80
2019-05-25T20:23:58.241Z,15.70
2019-05-25T20:27:05.737Z,15.70
2019-05-25T20:30:14.841Z,15.60
2019-05-25T20:33:27.637Z,15.60
2019-05-25T20:36:31.458Z,15.50
2019-05-25T20:39:38.967Z,15.40
2019-05-25T20:42:46.475Z,15.40
2019-05-25T20:45:53.958Z,15.30
2019-05-25T20:49:01.566Z,15.20
2019-05-25T20:52:11.368Z,15.10
2019-05-25T20:55:20.112Z,15.10
2019-05-25T20:58:27.671Z,15.00
2019-05-25T21:01:35.357Z,15.00
2019-05-25T21:04:43.030Z,15.00
2019-05-25T21:07:50.662Z,14.90
2019-05-25T21:10:59.170Z,14.90
2019-05-25T21:14:06.934Z,14.80
2019-05-25T21:17:14.459Z,14.80
2019-05-25T21:20:22.034Z,14.70
2019-05-25T21:23:29.485Z,14.70
2019-05-25T21:26:37.002Z,14.60
2019-05-25T21:29:44.501Z,14.60
2019-05-25T21:32:51.981Z,14.60
2019-05-25T21:36:08.128Z,14.50
2019-05-25T21:39:09.341Z,14.50
2019-05-25T21:42:16.771Z,14.50
2019-05-25T21:45:24.345Z,14.40
2019-05-25T21:48:33.680Z,14.40
2019-05-25T21:51:41.263Z,14.40
2019-05-25T21:54:48.850Z,14.30
2019-05-25T21:57:56.330Z,14.30
2019-05-25T22:01:03.828Z,14.20
2019-05-25T22:04:13.064Z,14.20
2019-05-25T22:07:22.630Z,14.20
2019-05-25T22:10:32.344Z,14.10
2019-05-25T22:13:39.879Z,14.10
2019-05-25T22:16:47.563Z,14.00
2019-05-25T22:19:55.611Z,14.00
2019-05-25T22:23:03.096Z,14.00
2019-05-25T22:26:10.731Z,14.00
2019-05-25T22:29:18.560Z,14.00
2019-05-25T22:32:26.884Z,14.00
2019-05-25T22:35:34.485Z,14.00
2019-05-25T22:38:42.092Z,14.00
2019-05-25T22:41:49.699Z,14.00
2019-05-25T22:44:57.265Z,14.10
2019-05-25T22:48:04.854Z,14.10
2019-05-25T22:51:12.360Z,14.20
2019-05-25T22:54:20.140Z,14.20
2019-05-25T22:57:27.586Z,14.30
2019-05-25T23:00:35.314Z,14.30
2019-05-25T23:03:43.157Z,14.30
2019-05-25T23:06:57.966Z,14.40
2019-05-25T23:10:00.398Z,14.40
2019-05-25T23:13:08.147Z,14.50
2019-05-25T23:16:15.946Z,14.40
2019-05-25T23:19:24.231Z,14.40
2019-05-25T23:22:32.341Z,14.40
2019-05-25T23:25:40.102Z,14.40
2019-05-25T23:28:47.667Z,14.40
2019-05-25T23:31:56.700Z,14.30
2019-05-25T23:35:04.571Z,14.30
2019-05-25T23:38:12.615Z,14.20
2019-05-25T23:41:21.653Z,14.20
2019-05-25T23:44:32.382Z,14.20
2019-05-25T23:47:43.326Z,14.10
2019-05-25T23:50:51.166Z,14.00
2019-05-25T23:53:59.113Z,13.90
2019-05-25T23:57:06.855Z,13.90
